Time;durP1;ratioP1;P1;durP2;ratioP2;P2;SDS_P1;SDS_P2;PMS_P1;PMS_P2;Temp;Humidity;BMP_temperature;BMP_pressure;BME280_temperature;BME280_humidity;BME280_pressure;Samples;Min_cycle;Max_cycle;Signal;HPM_P1;HPM_P2
2022/01/25 00:08:26;;;;;;;144.37;68.50;;;115.50;2176.00;;;;;;5075273;28;20039;-70
2022/01/25 00:27:25;;;;;;;138.37;66.87;;;115.60;2176.00;;;;;;5074830;28;20025;-68
2022/01/25 00:30:10;;;;;;;153.87;70.27;;;115.50;2176.00;;;;;;5074674;28;20020;-68
2022/01/25 00:32:36;;;;;;;159.10;73.23;;;115.50;2176.00;;;;;;5074670;28;20032;-69
2022/01/25 00:35:02;;;;;;;154.63;71.80;;;115.40;2176.00;;;;;;5074709;28;20024;-77
2022/01/25 00:37:28;;;;;;;154.73;75.67;;;115.40;2176.00;;;;;;5074241;28;20059;-75
2022/01/25 00:39:54;;;;;;;148.37;72.77;;;115.50;2176.00;;;;;;5074684;28;20060;-71
2022/01/25 00:42:20;;;;;;;156.60;75.83;;;115.60;2176.00;;;;;;5074841;28;20025;-73
2022/01/25 00:44:48;;;;;;;158.30;75.13;;;115.50;2176.00;;;;;;5074717;28;20028;-68
2022/01/25 00:47:16;;;;;;;155.77;73.33;;;115.40;2176.00;;;;;;5074391;28;20380;-70
2022/01/25 00:49:44;;;;;;;160.83;74.63;;;115.50;2176.00;;;;;;5074571;28;20035;-68
2022/01/25 00:54:50;;;;;;;172.60;81.37;;;115.60;2176.00;;;;;;5074303;28;20019;-70
2022/01/25 00:57:16;;;;;;;187.73;85.50;;;115.60;2176.00;;;;;;5074134;28;20563;-67
2022/01/25 00:59:43;;;;;;;169.17;78.23;;;115.50;2176.00;;;;;;5074207;28;20384;-69
2022/01/25 01:02:13;;;;;;;174.77;77.53;;;115.50;2176.00;;;;;;5074134;28;20357;-68
2022/01/25 01:04:42;;;;;;;169.30;76.73;;;115.60;2176.00;;;;;;5074374;28;20027;-76
2022/01/25 01:07:11;;;;;;;160.20;73.00;;;115.70;2176.00;;;;;;5073919;28;20029;-68
2022/01/25 01:09:40;;;;;;;144.97;68.37;;;115.60;2176.00;;;;;;5074208;28;20016;-76
2022/01/25 01:12:13;;;;;;;156.93;72.33;;;115.60;2176.00;;;;;;5073875;28;20465;-68
2022/01/25 01:15:05;;;;;;;159.32;72.68;;;115.60;2176.00;;;;;;5073646;28;20052;-78
2022/01/25 01:31:23;;;;;;;156.33;71.07;;;115.60;2176.00;;;;;;5074007;28;20089;-68
2022/01/25 01:44:18;;;;;;;166.27;75.57;;;115.50;2176.00;;;;;;5073519;28;20473;-78
2022/01/25 01:46:59;;;;;;;182.67;83.57;;;115.50;2176.00;;;;;;5073502;28;20024;-68
2022/01/25 01:49:27;;;;;;;199.43;92.90;;;115.70;2176.00;;;;;;5071332;28;20089;-69
2022/01/25 01:51:53;;;;;;;183.00;86.33;;;115.90;2176.00;;;;;;5073725;28;20052;-68
2022/01/25 01:54:19;;;;;;;190.07;85.70;;;116.00;2176.00;;;;;;5073362;28;20048;-68
2022/01/25 01:56:45;;;;;;;175.07;82.23;;;115.90;2176.00;;;;;;5073431;28;20024;-68
2022/01/25 01:59:15;;;;;;;167.60;77.37;;;116.00;2176.00;;;;;;5073582;28;20106;-71
2022/01/25 02:01:44;;;;;;;168.60;79.20;;;116.00;2176.00;;;;;;5073304;28;20021;-68
2022/01/25 02:04:12;;;;;;;162.73;73.40;;;116.10;2176.00;;;;;;5072070;28;20031;-68
2022/01/25 02:06:39;;;;;;;163.53;76.50;;;116.00;2176.00;;;;;;5073534;28;20025;-78
2022/01/25 02:09:07;;;;;;;165.40;76.73;;;116.00;2176.00;;;;;;5073261;28;20462;-68
2022/01/25 02:11:34;;;;;;;163.23;72.70;;;115.90;2176.00;;;;;;5073355;28;20107;-68
2022/01/25 02:14:05;;;;;;;161.80;71.87;;;115.90;2176.00;;;;;;5073024;28;20541;-76
2022/01/25 02:16:44;;;;;;;146.67;69.33;;;115.90;2176.00;;;;;;5073212;28;20063;-77
2022/01/25 02:24:44;;;;;;;164.50;76.03;;;115.80;2176.00;;;;;;5073733;28;20067;-68
2022/01/25 02:27:10;;;;;;;166.57;75.63;;;115.90;2176.00;;;;;;5073132;28;20027;-73
2022/01/25 02:29:36;;;;;;;171.60;77.77;;;116.00;2176.00;;;;;;5073059;28;20021;-69
2022/01/25 02:32:04;;;;;;;167.40;78.77;;;140.80;2176.00;;;;;;5073086;28;20500;-68
2022/01/25 02:34:31;;;;;;;158.97;68.73;;;140.80;2176.00;;;;;;5073147;28;20103;-77
2022/01/25 02:36:56;;;;;;;135.20;64.90;;;140.80;2176.00;;;;;;5073030;28;20171;-68
2022/01/25 02:39:22;;;;;;;168.67;76.53;;;116.10;2176.00;;;;;;5072907;28;20033;-69
2022/01/25 02:41:48;;;;;;;150.43;69.50;;;140.80;2176.00;;;;;;5071705;28;20028;-68
2022/01/25 02:44:23;;;;;;;127.50;61.53;;;140.80;2176.00;;;;;;5072961;28;20037;-71
2022/01/25 02:49:16;;;;;;;115.23;55.60;;;140.80;2176.00;;;;;;5072939;28;20035;-68
2022/01/25 02:51:45;;;;;;;118.87;56.27;;;140.90;2176.00;;;;;;5072927;28;20021;-68
2022/01/25 02:54:12;;;;;;;106.27;53.23;;;140.90;2176.00;;;;;;5073140;28;20392;-68
2022/01/25 02:56:40;;;;;;;107.63;53.10;;;140.90;2176.00;;;;;;5072883;28;20094;-69
2022/01/25 02:59:06;;;;;;;108.70;51.20;;;140.80;2176.00;;;;;;5073164;28;20036;-69
2022/01/25 03:01:34;;;;;;;106.30;52.53;;;140.80;2176.00;;;;;;5076494;28;20067;-78
2022/01/25 03:04:01;;;;;;;99.37;48.33;;;140.80;2176.00;;;;;;5076453;28;20028;-78
2022/01/25 03:06:26;;;;;;;101.60;49.90;;;140.80;2176.00;;;;;;5076357;28;20031;-68
2022/01/25 03:08:53;;;;;;;97.10;47.80;;;116.10;2176.00;;;;;;5076336;28;20103;-68
2022/01/25 03:11:22;;;;;;;92.03;44.57;;;116.10;2176.00;;;;;;5076330;28;20099;-78
2022/01/25 03:16:21;;;;;;;93.37;43.03;;;140.80;2176.00;;;;;;5076237;28;20016;-68
2022/01/25 03:18:49;;;;;;;85.53;43.13;;;116.10;2176.00;;;;;;5076383;28;20036;-79
2022/01/25 03:23:54;;;;;;;95.40;46.33;;;140.80;2176.00;;;;;;5076170;28;20056;-69
2022/01/25 03:26:21;;;;;;;97.63;46.67;;;116.10;2176.00;;;;;;5076303;28;20024;-72
2022/01/25 03:28:48;;;;;;;91.30;45.83;;;140.80;2176.00;;;;;;5075983;28;20374;-78
2022/01/25 03:31:15;;;;;;;88.67;45.13;;;140.90;2176.00;;;;;;5075930;28;20058;-72
2022/01/25 03:33:42;;;;;;;87.47;44.93;;;140.90;2176.00;;;;;;5076153;28;20043;-77
2022/01/25 03:36:08;;;;;;;99.33;49.10;;;140.80;2176.00;;;;;;5076092;28;20381;-69
2022/01/25 03:38:39;;;;;;;99.50;49.73;;;140.90;2176.00;;;;;;5076003;28;20044;-72
2022/01/25 03:41:10;;;;;;;93.43;47.10;;;140.90;2176.00;;;;;;5075750;28;20430;-68
2022/01/25 03:43:36;;;;;;;100.07;46.30;;;140.90;2176.00;;;;;;5075764;28;20063;-71
2022/01/25 03:50:59;;;;;;;107.43;49.47;;;141.00;2176.00;;;;;;5075613;28;20020;-68
2022/01/25 03:53:25;;;;;;;99.07;52.17;;;141.00;2176.00;;;;;;5075710;28;20028;-69
2022/01/25 03:55:51;;;;;;;107.63;53.17;;;141.00;2176.00;;;;;;5075758;28;20104;-76
2022/01/25 03:58:17;;;;;;;104.33;53.33;;;141.00;2176.00;;;;;;5075392;28;20085;-67
2022/01/25 04:00:44;;;;;;;115.87;59.33;;;141.00;2176.00;;;;;;5075619;28;20036;-67
2022/01/25 04:03:18;;;;;;;118.43;58.13;;;141.00;2176.00;;;;;;5075298;28;20028;-69
2022/01/25 04:08:11;;;;;;;119.60;58.10;;;141.10;2176.00;;;;;;5075274;28;20385;-70
2022/01/25 04:10:37;;;;;;;101.90;51.23;;;141.10;2176.00;;;;;;5074841;28;20380;-75
2022/01/25 04:13:04;;;;;;;109.17;50.57;;;141.20;2176.00;;;;;;5075096;28;20074;-71
2022/01/25 04:15:30;;;;;;;109.33;51.50;;;141.20;2176.00;;;;;;5074596;28;20153;-78
2022/01/25 04:18:16;;;;;;;100.07;51.00;;;141.20;2176.00;;;;;;5075008;28;20036;-68
2022/01/25 04:20:53;;;;;;;103.07;49.47;;;141.20;2176.00;;;;;;5075271;28;20032;-69
2022/01/25 04:26:04;;;;;;;100.97;48.33;;;141.30;2176.00;;;;;;5075222;28;20511;-79
2022/01/25 04:28:29;;;;;;;110.57;50.67;;;141.40;2176.00;;;;;;5075118;28;20052;-78
2022/01/25 04:30:55;;;;;;;100.27;49.73;;;141.30;2176.00;;;;;;5073537;28;20477;-68
2022/01/25 04:33:26;;;;;;;112.37;53.07;;;141.30;2176.00;;;;;;5075021;28;20426;-68
2022/01/25 04:35:59;;;;;;;106.77;52.53;;;141.30;2176.00;;;;;;5075007;28;20023;-69
2022/01/25 04:49:28;;;;;;;127.85;60.78;;;141.30;2176.00;;;;;;5074779;28;20327;-68
2022/01/25 04:52:10;;;;;;;125.90;61.30;;;141.30;2176.00;;;;;;5074429;28;20039;-68
2022/01/25 04:57:24;;;;;;;131.83;59.57;;;141.40;2176.00;;;;;;5074551;28;20031;-72
2022/01/25 05:02:31;;;;;;;114.27;52.43;;;141.30;2176.00;;;;;;5074178;28;20052;-75
2022/01/25 05:05:08;;;;;;;111.27;52.30;;;141.30;2176.00;;;;;;5074118;28;20024;-68
2022/01/25 05:07:51;;;;;;;106.17;52.77;;;141.30;2176.00;;;;;;5074374;28;20031;-72
2022/01/25 05:10:17;;;;;;;113.72;51.25;;;141.40;2176.00;;;;;;5074031;28;20029;-68
2022/01/25 05:13:39;;;;;;;108.13;52.13;;;141.40;2176.00;;;;;;5074230;28;20093;-69
2022/01/25 05:18:23;;;;;;;126.67;59.60;;;141.60;2176.00;;;;;;5074488;28;20040;-68
2022/01/25 05:23:33;;;;;;;141.90;63.10;;;141.60;2176.00;;;;;;5073994;28;20035;-76
2022/01/25 05:25:59;;;;;;;133.07;60.93;;;141.60;2176.00;;;;;;5073762;28;20024;-75
2022/01/25 05:28:25;;;;;;;135.70;61.80;;;141.60;2176.00;;;;;;5073995;28;20029;-67
2022/01/25 05:30:51;;;;;;;150.77;68.90;;;141.60;2176.00;;;;;;5073921;28;20048;-67
2022/01/25 05:33:17;;;;;;;176.30;73.67;;;141.70;2176.00;;;;;;5073656;28;20513;-76
2022/01/25 05:35:43;;;;;;;176.10;75.63;;;141.70;2176.00;;;;;;5073439;28;20439;-76
2022/01/25 05:38:09;;;;;;;171.80;75.73;;;141.70;2176.00;;;;;;5073388;28;20032;-67
2022/01/25 05:40:47;;;;;;;167.90;74.63;;;166.40;2176.00;;;;;;5073835;28;20032;-67
2022/01/25 05:46:11;;;;;;;171.10;76.00;;;166.50;2176.00;;;;;;5073551;28;20362;-68
2022/01/25 05:48:29;;;;;;;160.60;71.97;;;166.50;2176.00;;;;;;5073314;28;20037;-67
2022/01/25 05:50:56;;;;;;;156.80;70.30;;;166.60;2176.00;;;;;;5073355;28;20465;-68
2022/01/25 05:53:22;;;;;;;150.70;66.23;;;166.60;2176.00;;;;;;5073422;28;20108;-67
2022/01/25 05:55:48;;;;;;;146.93;68.47;;;166.60;2176.00;;;;;;5073284;28;20032;-76
2022/01/25 05:58:14;;;;;;;142.30;67.97;;;166.60;2176.00;;;;;;5073249;28;20119;-67
2022/01/25 06:00:41;;;;;;;138.67;62.87;;;166.60;2176.00;;;;;;5073325;28;20035;-71
2022/01/25 06:03:07;;;;;;;142.90;66.63;;;166.60;2176.00;;;;;;5073340;28;20077;-72
2022/01/25 06:05:34;;;;;;;151.73;65.70;;;166.50;2176.00;;;;;;5073276;28;20136;-75
2022/01/25 06:08:02;;;;;;;160.93;70.17;;;166.50;2176.00;;;;;;5073593;28;20021;-67
2022/01/25 06:10:29;;;;;;;159.40;74.87;;;166.50;2176.00;;;;;;5073222;28;20032;-70
2022/01/25 06:12:55;;;;;;;175.43;79.97;;;166.50;2176.00;;;;;;5073208;28;20032;-66
2022/01/25 06:15:22;;;;;;;180.33;82.47;;;166.50;2176.00;;;;;;5073031;28;20060;-67
2022/01/25 06:17:49;;;;;;;151.47;75.10;;;166.50;2176.00;;;;;;5073070;28;20029;-73
2022/01/25 06:20:15;;;;;;;181.77;85.37;;;166.50;2176.00;;;;;;5072906;28;20036;-75
2022/01/25 06:22:42;;;;;;;199.83;89.73;;;166.50;2176.00;;;;;;5073251;28;20024;-74
2022/01/25 06:25:10;;;;;;;184.80;82.27;;;166.60;2176.00;;;;;;5073072;28;20053;-76
2022/01/25 06:27:41;;;;;;;183.83;79.00;;;166.50;2176.00;;;;;;5073098;28;20469;-74
2022/01/25 06:30:14;;;;;;;193.90;79.90;;;166.50;2176.00;;;;;;5073261;28;20067;-70
2022/01/25 06:32:40;;;;;;;;;;;166.50;2176.00;;;;;;5073835;28;20050;-67
2022/01/25 06:35:07;;;;;;;175.40;77.23;;;166.40;2176.00;;;;;;5074937;28;20276;-66
2022/01/25 06:37:34;;;;;;;172.60;78.67;;;166.50;2176.00;;;;;;5076896;28;20066;-67
2022/01/25 06:40:00;;;;;;;182.83;82.57;;;166.40;2176.00;;;;;;5076839;28;20036;-73
2022/01/25 06:42:29;;;;;;;185.00;84.33;;;166.40;2176.00;;;;;;5077100;28;20020;-66
2022/01/25 06:44:59;;;;;;;207.87;91.97;;;166.40;2176.00;;;;;;5076812;28;20112;-68
2022/01/25 06:47:25;;;;;;;224.90;99.20;;;166.40;2176.00;;;;;;5076705;28;20034;-67
2022/01/25 06:49:51;;;;;;;225.80;98.90;;;166.40;2176.00;;;;;;5076636;28;20074;-72
2022/01/25 06:52:17;;;;;;;235.67;104.07;;;141.70;2176.00;;;;;;5076858;28;20028;-67
2022/01/25 06:54:43;;;;;;;243.83;111.43;;;141.70;2176.00;;;;;;5076340;28;20602;-67
2022/01/25 06:57:09;;;;;;;232.83;101.40;;;141.60;2176.00;;;;;;5076500;28;20021;-70
2022/01/25 06:59:35;;;;;;;207.63;91.27;;;141.60;2176.00;;;;;;5076852;28;20115;-67
2022/01/25 07:02:02;;;;;;;200.87;90.77;;;141.50;2176.00;;;;;;5076771;28;20070;-73
2022/01/25 07:04:27;;;;;;;217.77;106.77;;;141.50;2176.00;;;;;;5075105;28;20029;-74
2022/01/25 07:06:53;;;;;;;224.70;110.03;;;141.40;2176.00;;;;;;5076427;28;20027;-67
2022/01/25 07:09:19;;;;;;;207.70;96.07;;;141.40;2176.00;;;;;;5075043;28;20029;-68
2022/01/25 07:11:45;;;;;;;184.30;84.90;;;141.40;2176.00;;;;;;5076229;28;20110;-72
2022/01/25 07:14:12;;;;;;;174.50;75.53;;;141.40;2176.00;;;;;;5075832;28;20052;-68
2022/01/25 07:16:38;;;;;;;161.97;70.53;;;141.30;2176.00;;;;;;5075981;28;20031;-67
2022/01/25 07:19:03;;;;;;;146.87;67.00;;;141.30;2176.00;;;;;;5076055;28;20040;-76
2022/01/25 07:21:29;;;;;;;142.10;65.47;;;141.30;2176.00;;;;;;5076132;28;20104;-74
2022/01/25 07:23:55;;;;;;;179.73;90.30;;;141.20;2176.00;;;;;;5075389;28;20054;-69
2022/01/25 07:26:21;;;;;;;127.97;63.03;;;141.10;2176.00;;;;;;5075750;28;20081;-66
2022/01/25 07:28:47;;;;;;;127.83;61.60;;;141.10;2176.00;;;;;;5085659;28;20078;-76
2022/01/25 07:31:13;;;;;;;128.97;60.03;;;141.10;2176.00;;;;;;5084638;28;20023;-76
2022/01/25 07:33:39;;;;;;;151.07;68.27;;;141.10;2176.00;;;;;;5090389;28;20016;-84
2022/01/25 07:36:05;;;;;;;137.40;65.27;;;141.10;2176.00;;;;;;5087613;28;20396;-81
2022/01/25 07:38:31;;;;;;;147.33;70.07;;;141.00;2176.00;;;;;;5084171;28;20047;-87
2022/01/25 07:40:57;;;;;;;137.77;64.70;;;140.90;2176.00;;;;;;5082544;28;20465;-85
2022/01/25 07:43:24;;;;;;;122.33;58.60;;;140.80;2176.00;;;;;;5087990;28;20028;-67
2022/01/25 07:45:53;;;;;;;122.37;56.03;;;116.10;2176.00;;;;;;5084549;28;20024;-77
2022/01/25 07:48:20;;;;;;;108.00;52.07;;;116.00;2176.00;;;;;;5084278;28;20024;-66
2022/01/25 07:50:47;;;;;;;130.63;58.63;;;116.10;2176.00;;;;;;5095667;28;20117;-66
2022/01/25 07:53:12;;;;;;;129.37;59.27;;;116.10;2176.00;;;;;;5095692;28;20028;-66
2022/01/25 07:55:38;;;;;;;126.17;59.23;;;116.10;2176.00;;;;;;5095868;28;20024;-74
2022/01/25 07:58:05;;;;;;;132.20;59.60;;;116.00;2176.00;;;;;;5095391;28;20039;-68
2022/01/25 08:00:31;;;;;;;119.57;57.97;;;115.90;2176.00;;;;;;5093263;28;20020;-69
2022/01/25 08:02:57;;;;;;;122.43;56.03;;;115.80;2176.00;;;;;;5075456;28;20465;-69
2022/01/25 08:05:26;;;;;;;119.33;57.93;;;115.80;2176.00;;;;;;5075189;28;20032;-68
2022/01/25 08:07:53;;;;;;;121.13;58.00;;;115.70;2176.00;;;;;;5075170;28;20051;-68
2022/01/25 08:10:20;;;;;;;108.43;50.13;;;115.60;2176.00;;;;;;5075159;28;20028;-68
2022/01/25 08:12:47;;;;;;;103.70;52.53;;;115.60;2176.00;;;;;;5075031;28;20029;-67
2022/01/25 08:15:13;;;;;;;97.67;46.67;;;115.60;2176.00;;;;;;5074896;28;20115;-77
2022/01/25 08:17:39;;;;;;;94.60;46.00;;;115.50;2176.00;;;;;;5074877;28;20110;-77
2022/01/25 08:20:05;;;;;;;93.97;46.53;;;115.40;2176.00;;;;;;5074986;28;20020;-68
2022/01/25 08:22:33;;;;;;;91.23;44.00;;;115.30;2176.00;;;;;;5074855;28;20020;-68
2022/01/25 08:24:59;;;;;;;83.93;39.70;;;115.20;2176.00;;;;;;5074864;28;20066;-78
2022/01/25 08:27:25;;;;;;;74.97;39.40;;;90.50;2176.00;;;;;;5074853;28;20038;-78
2022/01/25 08:29:52;;;;;;;75.50;37.73;;;90.40;2176.00;;;;;;5083431;28;20388;-79
2022/01/25 08:32:18;;;;;;;64.83;35.30;;;90.20;2176.00;;;;;;5094844;28;20027;-77
2022/01/25 08:34:45;;;;;;;75.63;38.20;;;90.20;2176.00;;;;;;5081138;28;20452;-73
2022/01/25 08:37:11;;;;;;;65.60;32.37;;;90.00;2176.00;;;;;;5074422;28;20055;-67
2022/01/25 08:39:37;;;;;;;61.37;31.57;;;89.90;2176.00;;;;;;5074328;28;20033;-68
2022/01/25 08:42:04;;;;;;;64.93;33.63;;;89.80;2176.00;;;;;;5074381;28;20028;-68
2022/01/25 08:44:30;;;;;;;66.93;33.57;;;89.70;2176.00;;;;;;5074390;28;20105;-69
2022/01/25 08:46:56;;;;;;;66.33;32.60;;;89.60;2201.60;;;;;;5074150;28;20021;-69
2022/01/25 08:49:22;;;;;;;77.00;35.60;;;64.80;2201.60;;;;;;5074164;28;20033;-68
2022/01/25 08:51:48;;;;;;;62.63;32.53;;;64.60;2201.60;;;;;;5073915;28;20040;-70
2022/01/25 08:54:16;;;;;;;60.53;31.87;;;64.50;2201.60;;;;;;5074174;28;20485;-73
2022/01/25 08:56:42;;;;;;;65.63;32.17;;;64.30;2201.60;;;;;;5080432;28;20032;-72
2022/01/25 08:59:09;;;;;;;85.93;45.23;;;64.00;2201.60;;;;;;5082528;28;20085;-70
2022/01/25 09:01:34;;;;;;;78.30;39.60;;;39.30;2201.60;;;;;;5084720;28;20498;-73
2022/01/25 09:04:03;;;;;;;83.10;39.63;;;39.10;2201.60;;;;;;5073979;28;20016;-68
2022/01/25 09:06:29;;;;;;;60.90;34.80;;;38.80;2201.60;;;;;;5072389;28;20035;-68
2022/01/25 09:09:07;;;;;;;86.23;44.83;;;38.60;2201.60;;;;;;5073976;28;20020;-73
2022/01/25 09:11:34;;;;;;;97.57;51.27;;;38.60;2201.60;;;;;;5074013;28;20029;-71
2022/01/25 09:14:00;;;;;;;80.03;40.60;;;38.40;2201.60;;;;;;5073707;28;20382;-73
2022/01/25 09:16:26;;;;;;;86.97;41.27;;;13.70;2201.60;;;;;;5073846;28;20029;-72
2022/01/25 09:18:52;;;;;;;78.33;38.40;;;13.40;2201.60;;;;;;5080469;28;20055;-78
2022/01/25 09:21:18;;;;;;;84.23;42.50;;;13.20;2201.60;;;;;;5082613;28;20461;-72
2022/01/25 09:23:44;;;;;;;70.17;34.27;;;0.70;2176.00;;;;;;5085169;28;20042;-72
2022/01/25 09:26:10;;;;;;;61.87;33.83;;;26.00;2048.00;;;;;;5094019;28;20073;-73
2022/01/25 09:28:35;;;;;;;57.27;31.80;;;26.20;2022.40;;;;;;5093898;28;20024;-73
2022/01/25 09:31:02;;;;;;;49.97;29.60;;;51.40;1920.00;;;;;;5093812;28;20024;-73
2022/01/25 09:33:28;;;;;;;50.87;25.17;;;51.30;1920.00;;;;;;5093892;28;20029;-73
2022/01/25 09:35:56;;;;;;;53.73;29.03;;;51.80;1868.80;;;;;;5093696;28;20036;-68
2022/01/25 09:38:23;;;;;;;58.77;31.73;;;102.40;1715.20;;;;;;5092391;28;20082;-67
2022/01/25 09:40:50;;;;;;;58.20;30.63;;;128.10;1612.80;;;;;;5093703;28;20021;-73
2022/01/25 09:43:16;;;;;;;63.50;36.77;;;128.50;1612.80;;;;;;5093718;28;20535;-73
2022/01/25 09:45:43;;;;;;;49.20;28.33;;;205.20;1331.20;;;;;;5092550;28;20140;-73
2022/01/25 09:48:09;;;;;;;52.33;30.50;;;205.50;1280.00;;;;;;5084561;28;20068;-73
2022/01/25 09:50:38;;;;;;;47.00;28.50;;;204.80;1331.20;;;;;;5081976;28;20028;-72
2022/01/25 09:53:05;;;;;;;45.43;27.20;;;230.50;1228.80;;;;;;5084295;28;20438;-76
2022/01/25 09:55:34;;;;;;;53.03;30.47;;;205.70;1228.80;;;;;;5082800;28;20457;-73
2022/01/25 09:58:01;;;;;;;48.17;29.30;;;230.60;1228.80;;;;;;5090543;28;20032;-73
2022/01/25 10:00:29;;;;;;;38.43;24.90;;;256.70;1126.40;;;;;;5093510;28;20056;-75
2022/01/25 10:03:21;;;;;;;42.80;27.00;;;308.10;1024.00;;;;;;5093449;28;20028;-74
2022/01/25 10:05:49;;;;;;;50.00;31.77;;;333.60;972.80;;;;;;5093414;28;20033;-74
2022/01/25 10:08:24;;;;;;;49.23;31.73;;;307.50;1024.00;;;;;;5093452;28;20362;-73
2022/01/25 10:11:14;;;;;;;36.92;25.00;;;231.10;1126.40;;;;;;5096823;28;20024;-75
2022/01/25 10:13:42;;;;;;;35.00;22.37;;;256.60;1100.80;;;;;;5096225;28;20075;-74
2022/01/25 10:16:10;;;;;;;33.77;22.33;;;308.10;998.40;;;;;;5097673;28;20420;-74
2022/01/25 10:18:43;;;;;;;32.08;22.00;;;358.80;921.60;;;;;;5097447;28;20503;-74
2022/01/25 10:21:18;;;;;;;40.13;26.67;;;384.80;819.20;;;;;;5086698;28;20023;-74
2022/01/25 10:24:13;;;;;;;35.03;24.10;;;435.30;793.60;;;;;;5083429;28;20441;-73
2022/01/25 10:26:43;;;;;;;32.70;21.85;;;460.90;742.40;;;;;;5090531;28;20488;-71
2022/01/25 10:29:12;;;;;;;38.45;24.83;;;460.90;768.00;;;;;;5094585;28;20026;-69
2022/01/25 10:31:43;;;;;;;35.60;24.42;;;410.30;793.60;;;;;;5075883;28;20031;-70
2022/01/25 10:34:13;;;;;;;27.10;18.48;;;358.60;870.40;;;;;;5078564;28;20481;-72
2022/01/25 10:36:46;;;;;;;35.75;20.25;;;333.30;896.00;;;;;;5081638;28;20034;-78
2022/01/25 10:39:13;;;;;;;30.47;19.70;;;;;;;;;;5077980;28;20033;-74
2022/01/25 10:41:39;;;;;;;29.20;19.45;;;282.20;972.80;;;;;;5075448;28;20023;-71
2022/01/25 10:44:07;;;;;;;31.20;21.65;;;256.60;1024.00;;;;;;5075635;28;20016;-70
2022/01/25 10:46:33;;;;;;;27.30;18.50;;;256.60;1024.00;;;;;;5083787;28;20465;-73
2022/01/25 10:49:15;;;;;;;40.47;23.42;;;231.30;1024.00;;;;;;5085465;28;20035;-69
2022/01/25 10:51:44;;;;;;;29.02;18.42;;;231.10;1075.20;;;;;;5085333;28;20533;-72
2022/01/25 10:54:16;;;;;;;28.15;18.88;;;230.80;1100.80;;;;;;5081413;28;20099;-78
2022/01/25 10:56:54;;;;;;;27.60;17.73;;;282.30;998.40;;;;;;5075815;28;20021;-75
2022/01/25 10:59:23;;;;;;;25.70;16.27;;;256.60;998.40;;;;;;5075501;28;20055;-74
2022/01/25 11:01:55;;;;;;;40.42;24.15;;;256.00;1049.60;;;;;;5076771;28;20376;-71
2022/01/25 11:04:31;;;;;;;46.20;27.50;;;307.40;947.20;;;;;;5076294;28;20028;-73
2022/01/25 11:07:09;;;;;;;96.18;51.75;;;308.10;896.00;;;;;;5076046;28;20039;-72
2022/01/25 11:09:44;;;;;;;56.53;31.45;;;308.10;947.20;;;;;;5078730;28;20029;-67
2022/01/25 11:12:14;;;;;;;72.35;41.28;;;358.40;844.80;;;;;;5076345;28;20032;-71
2022/01/25 11:14:57;;;;;;;40.10;23.33;;;282.00;972.80;;;;;;5074762;28;20052;-66
2022/01/25 11:17:30;;;;;;;34.17;19.70;;;205.20;1100.80;;;;;;5076403;28;20040;-73
2022/01/25 11:19:57;;;;;;;46.22;25.85;;;154.20;1305.60;;;;;;5075511;28;20029;-68
2022/01/25 11:22:23;;;;;;;33.75;21.02;;;154.10;1280.00;;;;;;5075139;28;20025;-68
2022/01/25 11:24:54;;;;;;;32.80;20.15;;;153.90;1305.60;;;;;;5075897;28;20423;-68
2022/01/25 11:27:22;;;;;;;24.58;15.38;;;153.60;1331.20;;;;;;5076104;28;20500;-68
2022/01/25 11:29:51;;;;;;;32.28;19.40;;;153.70;1331.20;;;;;;5076256;28;20029;-69
2022/01/25 11:32:23;;;;;;;32.28;19.58;;;154.20;1305.60;;;;;;5075999;28;20056;-68
2022/01/25 11:34:50;;;;;;;35.20;17.83;;;153.80;1331.20;;;;;;5076020;28;20150;-72
2022/01/25 11:37:17;;;;;;;29.20;16.48;;;128.80;1382.40;;;;;;5076151;28;20025;-68
2022/01/25 11:39:51;;;;;;;29.80;16.80;;;128.30;1408.00;;;;;;5075775;28;20032;-68
2022/01/25 11:42:26;;;;;;;33.53;25.50;;;128.10;1408.00;;;;;;5075821;28;20017;-73
2022/01/25 11:44:55;;;;;;;24.23;16.00;;;103.30;1433.60;;;;;;5076102;28;20020;-68
2022/01/25 11:47:29;;;;;;;33.03;19.33;;;103.00;1459.20;;;;;;5075717;28;20025;-73
2022/01/25 11:50:10;;;;;;;54.80;31.27;;;102.70;1459.20;;;;;;5075658;28;20385;-69
2022/01/25 11:52:45;;;;;;;31.67;18.40;;;102.70;1484.80;;;;;;5075959;28;20453;-68
2022/01/25 11:55:27;;;;;;;23.70;14.03;;;102.80;1484.80;;;;;;5075828;28;20020;-68
2022/01/25 11:57:59;;;;;;;25.40;14.87;;;102.50;1484.80;;;;;;5075751;28;20086;-68
2022/01/25 12:00:51;;;;;;;36.47;18.60;;;102.70;1484.80;;;;;;5075472;28;20450;-68
2022/01/25 12:03:33;;;;;;;39.77;21.57;;;102.60;1484.80;;;;;;5075444;28;20035;-68
2022/01/25 12:06:04;;;;;;;25.47;14.00;;;102.60;1510.40;;;;;;5075653;28;20020;-68
2022/01/25 12:08:41;;;;;;;34.17;19.53;;;102.60;1510.40;;;;;;5075367;28;20031;-68
2022/01/25 12:11:25;;;;;;;24.60;15.23;;;103.10;1484.80;;;;;;5075554;28;20427;-68
2022/01/25 12:14:16;;;;;;;34.60;18.93;;;154.20;1305.60;;;;;;5075040;28;20079;-68
2022/01/25 12:16:51;;;;;;;70.50;35.63;;;204.80;1254.40;;;;;;5073888;28;20027;-68
2022/01/25 12:19:32;;;;;;;72.13;47.83;;;154.40;1254.40;;;;;;5075287;28;20472;-68
2022/01/25 12:22:00;;;;;;;45.97;27.30;;;;;;;;;;5075063;28;20024;-68
2022/01/25 12:24:40;;;;;;;50.70;31.47;;;205.70;1152.00;;;;;;5074946;28;20025;-68
2022/01/25 12:27:17;;;;;;;340.70;211.33;;;307.20;947.20;;;;;;5075151;28;20020;-68
2022/01/25 12:29:45;;;;;;;23.77;14.95;;;333.30;896.00;;;;;;5075230;28;20020;-68
2022/01/25 12:32:20;;;;;;;32.53;18.98;;;256.00;998.40;;;;;;5073972;28;20091;-68
2022/01/25 12:35:07;;;;;;;33.03;18.30;;;205.40;1126.40;;;;;;5073470;28;20024;-71
2022/01/25 12:37:42;;;;;;;30.98;19.15;;;230.70;1075.20;;;;;;5074792;28;20024;-68
2022/01/25 12:40:28;;;;;;;39.08;20.67;;;205.60;1152.00;;;;;;5074836;28;20036;-68
2022/01/25 12:43:03;;;;;;;45.58;26.45;;;281.80;1024.00;;;;;;5074639;28;20040;-68
2022/01/25 12:45:41;;;;;;;31.40;19.38;;;308.10;921.60;;;;;;5073336;28;20074;-68
2022/01/25 12:48:16;;;;;;;27.42;17.55;;;282.10;972.80;;;;;;5074539;28;20025;-68
2022/01/25 12:50:46;;;;;;;31.60;19.30;;;333.40;921.60;;;;;;5074533;28;20468;-73
2022/01/25 12:53:17;;;;;;;27.25;17.10;;;333.20;921.60;;;;;;5074702;28;20107;-68
2022/01/25 12:55:47;;;;;;;34.08;19.40;;;435.60;716.80;;;;;;5074461;28;20074;-68
2022/01/25 12:58:14;;;;;;;40.33;22.98;;;538.20;614.40;;;;;;5074240;28;20093;-68
2022/01/25 13:00:45;;;;;;;26.08;18.27;;;589.40;537.60;;;;;;5074505;28;20389;-68
2022/01/25 13:03:16;;;;;;;72.78;41.35;;;615.30;512.00;;;;;;5074220;28;20052;-73
2022/01/25 13:05:46;;;;;;;32.03;20.10;;;665.60;486.40;;;;;;5074195;28;20025;-68
2022/01/25 13:08:26;;;;;;;49.78;31.52;;;563.50;588.80;;;;;;5074420;28;20090;-68
2022/01/25 13:11:12;;;;;;;50.03;35.08;;;538.30;563.20;;;;;;5074405;28;20055;-68
2022/01/25 13:14:00;;;;;;;28.48;22.38;;;461.30;665.60;;;;;;5074055;28;20029;-68
2022/01/25 13:16:54;;;;;;;32.70;19.67;;;409.90;716.80;;;;;;5073822;28;20064;-68
2022/01/25 13:19:23;;;;;;;25.38;19.30;;;410.10;716.80;;;;;;5073923;28;20036;-71
2022/01/25 13:22:05;;;;;;;23.27;16.40;;;409.90;716.80;;;;;;5073843;28;20025;-68
2022/01/25 13:24:36;;;;;;;28.83;17.65;;;410.40;691.20;;;;;;5073835;28;20052;-68
2022/01/25 13:27:13;;;;;;;24.67;16.55;;;436.10;665.60;;;;;;5074155;28;20021;-69
2022/01/25 13:32:31;;;;;;;32.13;20.30;;;563.20;614.40;;;;;;5074336;28;20143;-68
2022/01/25 13:35:05;;;;;;;29.27;17.67;;;615.30;512.00;;;;;;5074095;28;20440;-69
2022/01/25 13:37:32;;;;;;;33.63;20.05;;;665.90;460.80;;;;;;5074311;28;20017;-68
2022/01/25 13:40:01;;;;;;;25.10;16.73;;;665.60;486.40;;;;;;5073552;28;20036;-68
2022/01/25 13:42:41;;;;;;;24.25;15.68;;;691.20;460.80;;;;;;5073593;28;20021;-69
2022/01/25 13:48:04;;;;;;;22.10;15.57;;;717.00;486.40;;;;;;5074165;28;20035;-68
2022/01/25 13:50:33;;;;;;;24.48;16.40;;;691.40;435.20;;;;;;5073537;28;20047;-73
2022/01/25 13:52:59;;;;;;;25.75;17.67;;;666.10;486.40;;;;;;5073993;28;20080;-68
2022/01/25 13:55:26;;;;;;;30.67;20.17;;;691.40;435.20;;;;;;5073475;28;20028;-68